Time;durP1;ratioP1;P1;durP2;ratioP2;P2;SDS_P1;SDS_P2;PMS_P1;PMS_P2;Temp;Humidity;BMP_temperature;BMP_pressure;BME280_temperature;BME280_humidity;BME280_pressure;Samples;Min_cycle;Max_cycle;Signal;HPM_P1;HPM_P2
2022/05/22 00:02:09;;;;;;;13.37;5.40;;;13.70;97.30;;;;;;4991533;28;20424;-88
2022/05/22 00:04:35;;;;;;;14.40;5.67;;;13.70;97.30;;;;;;4991696;28;20197;-89
2022/05/22 00:07:01;;;;;;;13.13;5.73;;;13.70;97.30;;;;;;4991350;28;20467;-89
2022/05/22 00:09:28;;;;;;;11.90;6.60;;;13.70;97.30;;;;;;4992608;28;20906;-89
2022/05/22 00:11:55;;;;;;;11.80;5.63;;;13.70;97.30;;;;;;4992729;28;20173;-89
2022/05/22 00:14:21;;;;;;;14.43;5.50;;;13.70;97.30;;;;;;4991135;28;20861;-89
2022/05/22 00:16:47;;;;;;;11.53;5.53;;;13.70;97.30;;;;;;4991172;28;20491;-89
2022/05/22 00:19:18;;;;;;;7.30;5.00;;;13.70;97.30;;;;;;4991364;28;20448;-89
2022/05/22 00:21:44;;;;;;;12.97;5.27;;;13.60;97.30;;;;;;4991327;28;20409;-89
2022/05/22 00:24:11;;;;;;;10.03;4.93;;;13.60;97.30;;;;;;4991340;28;20419;-89
2022/05/22 00:26:38;;;;;;;8.07;5.30;;;13.60;97.30;;;;;;4990328;28;20563;-89
2022/05/22 00:29:04;;;;;;;11.00;5.60;;;13.60;97.30;;;;;;4992948;28;20413;-89
2022/05/22 00:31:29;;;;;;;11.30;5.73;;;13.60;97.30;;;;;;4991221;28;20926;-89
2022/05/22 00:33:55;;;;;;;7.20;4.87;;;13.60;97.30;;;;;;4990971;28;20202;-89
2022/05/22 00:36:21;;;;;;;8.80;4.70;;;13.50;97.30;;;;;;4991203;28;20194;-89
2022/05/22 00:38:46;;;;;;;6.30;4.43;;;13.50;97.30;;;;;;4990877;28;20184;-88
2022/05/22 00:41:13;;;;;;;14.47;5.43;;;13.50;97.30;;;;;;4990730;28;20500;-88
2022/05/22 00:43:45;;;;;;;7.93;5.47;;;13.50;97.30;;;;;;4990789;28;20236;-89
2022/05/22 00:46:13;;;;;;;14.57;5.20;;;13.40;97.30;;;;;;4990743;28;20492;-89
2022/05/22 00:48:47;;;;;;;13.13;6.43;;;13.40;97.30;;;;;;4990593;28;20487;-89
2022/05/22 00:51:26;;;;;;;12.13;5.67;;;13.40;97.30;;;;;;4991971;28;20470;-89
2022/05/22 00:53:59;;;;;;;9.00;5.60;;;13.40;97.30;;;;;;4990513;28;20475;-88
2022/05/22 00:56:35;;;;;;;12.43;5.60;;;13.30;97.30;;;;;;4990508;28;20429;-89
2022/05/22 00:59:02;;;;;;;11.67;5.70;;;13.30;97.30;;;;;;4990452;28;20448;-88
2022/05/22 01:01:28;;;;;;;9.50;5.87;;;13.20;97.30;;;;;;4990540;28;20424;-88
2022/05/22 01:03:55;;;;;;;12.87;6.77;;;13.20;97.30;;;;;;4991792;28;20448;-88
2022/05/22 01:06:24;;;;;;;8.57;5.40;;;13.10;97.30;;;;;;4991650;28;20491;-88
2022/05/22 01:08:50;;;;;;;11.97;6.40;;;13.10;97.30;;;;;;4990432;28;21004;-89
2022/05/22 01:11:24;;;;;;;12.67;6.80;;;13.00;97.30;;;;;;4991257;28;20413;-88
2022/05/22 01:13:55;;;;;;;9.00;5.60;;;13.00;97.30;;;;;;4990312;28;20454;-88
2022/05/22 01:16:21;;;;;;;10.67;5.77;;;13.00;97.30;;;;;;4990430;28;20433;-88
2022/05/22 01:18:50;;;;;;;10.00;6.70;;;12.90;97.30;;;;;;4990318;28;20420;-89
2022/05/22 01:21:23;;;;;;;13.97;6.53;;;12.90;97.30;;;;;;4990737;28;20345;-89
2022/05/22 01:23:50;;;;;;;9.53;5.43;;;12.90;97.30;;;;;;4991914;28;20477;-87
2022/05/22 01:26:16;;;;;;;10.93;5.87;;;12.80;97.30;;;;;;4991466;28;20970;-87
2022/05/22 01:28:42;;;;;;;9.00;5.47;;;12.80;97.30;;;;;;4990131;28;20429;-87
2022/05/22 01:31:08;;;;;;;10.93;6.80;;;12.80;97.30;;;;;;4990068;28;20770;-86
2022/05/22 01:33:35;;;;;;;10.67;5.90;;;12.80;97.30;;;;;;4989702;28;20209;-87
2022/05/22 01:36:02;;;;;;;9.27;5.77;;;12.80;97.30;;;;;;4991540;28;20432;-87
2022/05/22 01:38:28;;;;;;;11.83;6.30;;;12.70;97.30;;;;;;4989586;28;20545;-87
2022/05/22 01:40:54;;;;;;;9.67;5.37;;;12.70;97.30;;;;;;4989356;28;20471;-87
2022/05/22 01:43:19;;;;;;;10.57;5.80;;;12.70;97.30;;;;;;4989586;28;20417;-87
2022/05/22 01:45:45;;;;;;;10.87;5.70;;;12.70;97.30;;;;;;4990763;28;20221;-87
2022/05/22 01:48:11;;;;;;;9.50;5.93;;;12.60;97.30;;;;;;4989662;28;20212;-87
2022/05/22 01:50:38;;;;;;;10.20;6.13;;;12.60;97.30;;;;;;4989445;28;20178;-88
2022/05/22 01:53:05;;;;;;;10.07;5.90;;;12.50;97.30;;;;;;4989718;28;20513;-87
2022/05/22 01:55:31;;;;;;;10.37;5.40;;;12.50;97.30;;;;;;4989173;28;20464;-87
2022/05/22 01:57:56;;;;;;;9.30;5.90;;;12.40;97.30;;;;;;4989480;28;20479;-87
2022/05/22 02:00:24;;;;;;;10.00;5.90;;;12.40;97.30;;;;;;4989422;28;20593;-87
2022/05/22 02:02:50;;;;;;;10.77;5.70;;;12.30;97.30;;;;;;4989596;28;20189;-87
2022/05/22 02:05:17;;;;;;;11.80;6.13;;;12.30;97.30;;;;;;4989454;28;20802;-87
2022/05/22 02:10:27;;;;;;;11.47;6.07;;;12.20;97.30;;;;;;4991680;28;20460;-87
2022/05/22 02:12:53;;;;;;;13.73;5.73;;;12.10;97.30;;;;;;4990921;28;20401;-87
2022/05/22 02:15:19;;;;;;;17.70;6.30;;;12.10;97.30;;;;;;4989537;28;20511;-87
2022/05/22 02:17:45;;;;;;;16.70;6.43;;;12.00;97.30;;;;;;4990930;28;20834;-87
2022/05/22 02:20:11;;;;;;;12.17;6.10;;;12.00;97.30;;;;;;4989524;28;20448;-87
2022/05/22 02:22:42;;;;;;;11.57;7.20;;;12.00;97.30;;;;;;4989225;28;20193;-87
2022/05/22 02:25:08;;;;;;;19.40;6.87;;;12.00;97.30;;;;;;4989856;28;20579;-87
2022/05/22 02:27:33;;;;;;;13.20;7.17;;;11.90;97.30;;;;;;4989222;28;20433;-87
2022/05/22 02:30:00;;;;;;;16.37;6.47;;;11.90;97.30;;;;;;4989265;28;20919;-87
2022/05/22 02:32:26;;;;;;;17.70;8.70;;;11.80;97.30;;;;;;4989228;28;20197;-87
2022/05/22 02:34:51;;;;;;;12.83;7.07;;;11.80;97.30;;;;;;4989023;28;20464;-87
2022/05/22 02:37:17;;;;;;;16.10;7.00;;;11.80;97.30;;;;;;4989006;28;20289;-87
2022/05/22 02:39:43;;;;;;;18.00;7.60;;;11.80;97.30;;;;;;4989048;28;20185;-87
2022/05/22 02:42:08;;;;;;;16.73;7.60;;;11.80;97.30;;;;;;4988961;28;20289;-87
2022/05/22 02:44:34;;;;;;;14.70;7.10;;;11.80;97.30;;;;;;4989031;28;20182;-87
2022/05/22 02:47:00;;;;;;;12.17;7.10;;;11.80;97.30;;;;;;4990251;28;20547;-87
2022/05/22 02:49:25;;;;;;;11.20;6.00;;;11.80;97.30;;;;;;4989771;28;20209;-87
2022/05/22 02:51:51;;;;;;;15.83;7.43;;;11.80;97.30;;;;;;4992720;28;20240;-87
2022/05/22 02:54:17;;;;;;;11.80;6.67;;;11.80;97.30;;;;;;4992553;28;20214;-87
2022/05/22 02:56:42;;;;;;;16.30;8.40;;;11.70;97.30;;;;;;4993681;28;20189;-87
2022/05/22 02:59:08;;;;;;;12.90;6.63;;;11.70;97.30;;;;;;4992898;28;20230;-87
2022/05/22 03:01:34;;;;;;;16.23;7.37;;;11.60;97.30;;;;;;4993123;28;20206;-87
2022/05/22 03:04:00;;;;;;;13.40;7.53;;;11.60;97.30;;;;;;4993188;28;21014;-87
2022/05/22 03:06:41;;;;;;;16.87;7.30;;;11.60;97.30;;;;;;4992506;28;20544;-87
2022/05/22 03:09:16;;;;;;;11.43;6.53;;;11.60;97.30;;;;;;4992384;28;20652;-87
2022/05/22 03:11:43;;;;;;;11.33;6.87;;;11.50;97.30;;;;;;4992321;28;20425;-87
2022/05/22 03:14:10;;;;;;;12.60;6.30;;;11.50;97.30;;;;;;4992501;28;20461;-87
2022/05/22 03:16:35;;;;;;;11.70;6.10;;;11.50;97.30;;;;;;4992447;28;20448;-87
2022/05/22 03:19:01;;;;;;;13.67;7.30;;;11.40;97.30;;;;;;4993709;28;20413;-87
2022/05/22 03:21:27;;;;;;;16.37;7.13;;;11.40;97.30;;;;;;4992213;28;20556;-87
2022/05/22 03:23:54;;;;;;;14.23;7.07;;;11.40;97.30;;;;;;4992231;28;20432;-87
2022/05/22 03:26:19;;;;;;;19.30;7.10;;;11.40;97.30;;;;;;4992067;28;20504;-87
2022/05/22 03:28:45;;;;;;;13.60;6.70;;;11.40;97.30;;;;;;4992023;28;20456;-87
2022/05/22 03:31:10;;;;;;;18.87;7.10;;;11.40;97.30;;;;;;4992213;28;20190;-87
2022/05/22 03:33:36;;;;;;;14.03;6.07;;;11.40;97.30;;;;;;4992116;28;20208;-87
2022/05/22 03:36:03;;;;;;;14.93;6.30;;;11.40;97.30;;;;;;4991733;28;20197;-87
2022/05/22 03:38:28;;;;;;;9.17;5.60;;;11.40;97.30;;;;;;4991715;28;20598;-87
2022/05/22 03:40:54;;;;;;;15.23;5.83;;;11.40;97.30;;;;;;4992071;28;20504;-88
2022/05/22 03:43:20;;;;;;;9.30;6.40;;;11.30;97.30;;;;;;4991784;28;20205;-87
2022/05/22 03:45:45;;;;;;;15.40;6.17;;;11.30;97.30;;;;;;4991913;28;20251;-88
2022/05/22 03:48:11;;;;;;;14.13;6.40;;;11.30;97.30;;;;;;4991674;28;20181;-87
2022/05/22 03:50:38;;;;;;;13.00;5.90;;;11.30;97.30;;;;;;4992046;28;20182;-87
2022/05/22 03:53:04;;;;;;;13.50;7.23;;;11.30;97.30;;;;;;4993061;28;20475;-88
2022/05/22 03:55:30;;;;;;;10.10;6.07;;;11.20;97.30;;;;;;4991946;28;20993;-86
2022/05/22 03:57:55;;;;;;;11.87;5.43;;;11.20;97.30;;;;;;4991681;28;20404;-88
2022/05/22 04:00:25;;;;;;;16.23;6.60;;;11.20;97.30;;;;;;4991369;28;20693;-87
2022/05/22 04:02:51;;;;;;;10.33;5.87;;;11.20;97.30;;;;;;4991363;28;20654;-88
2022/05/22 04:05:17;;;;;;;15.33;6.40;;;11.30;97.30;;;;;;4992861;28;20965;-87
2022/05/22 04:07:45;;;;;;;12.83;6.90;;;11.30;97.30;;;;;;4991310;28;20425;-87
2022/05/22 04:10:13;;;;;;;11.63;6.17;;;11.30;97.30;;;;;;4991285;28;20511;-87
2022/05/22 04:12:39;;;;;;;11.93;6.90;;;11.30;97.30;;;;;;4992562;28;20425;-87
2022/05/22 04:15:11;;;;;;;16.70;6.93;;;11.30;97.30;;;;;;4991090;28;20515;-88
2022/05/22 04:17:37;;;;;;;17.77;7.97;;;11.30;97.30;;;;;;4991248;28;20449;-87
2022/05/22 04:20:03;;;;;;;15.90;7.53;;;11.30;97.30;;;;;;4991041;28;20421;-87
2022/05/22 04:22:28;;;;;;;13.70;6.87;;;11.30;97.30;;;;;;4991289;28;20516;-87
2022/05/22 04:25:12;;;;;;;14.73;7.27;;;11.30;97.30;;;;;;4990857;28;20594;-87
2022/05/22 04:27:39;;;;;;;17.63;7.60;;;11.30;97.30;;;;;;4991301;28;20267;-88
2022/05/22 04:30:06;;;;;;;11.10;6.53;;;11.30;97.30;;;;;;4991060;28;20425;-87
2022/05/22 04:32:32;;;;;;;11.47;7.17;;;11.30;97.30;;;;;;5007091;28;20433;-87
2022/05/22 04:34:57;;;;;;;11.00;7.40;;;11.40;97.30;;;;;;4990847;28;20992;-87
2022/05/22 04:37:23;;;;;;;14.27;7.73;;;11.40;97.30;;;;;;4992347;28;20644;-87
2022/05/22 04:39:48;;;;;;;16.67;7.40;;;11.40;97.30;;;;;;4990822;28;20232;-87
2022/05/22 04:42:15;;;;;;;15.40;7.17;;;11.50;97.30;;;;;;4990748;28;20224;-87
2022/05/22 04:44:40;;;;;;;11.63;7.20;;;11.50;97.30;;;;;;4990796;28;20185;-87
2022/05/22 04:47:06;;;;;;;14.53;6.37;;;11.50;97.30;;;;;;4990971;28;20437;-87
2022/05/22 04:49:32;;;;;;;11.73;6.43;;;11.50;97.30;;;;;;4991222;28;20193;-87
2022/05/22 04:51:58;;;;;;;16.63;7.70;;;11.60;97.30;;;;;;4990691;28;20182;-87
2022/05/22 04:54:24;;;;;;;10.83;6.23;;;11.70;97.30;;;;;;4991995;28;20208;-87
2022/05/22 04:56:52;;;;;;;13.37;6.50;;;11.80;97.30;;;;;;4990687;28;21033;-87
2022/05/22 04:59:18;;;;;;;16.37;6.70;;;11.80;97.30;;;;;;4991905;28;20409;-87
2022/05/22 05:01:44;;;;;;;17.37;6.27;;;11.90;97.30;;;;;;4990278;28;20476;-86
2022/05/22 05:04:11;;;;;;;14.67;6.00;;;12.00;97.30;;;;;;4991015;28;20170;-87
2022/05/22 05:06:37;;;;;;;10.80;5.57;;;12.00;97.30;;;;;;4990893;28;20437;-86
2022/05/22 05:09:03;;;;;;;16.53;6.07;;;12.10;97.30;;;;;;4990413;28;20487;-87
2022/05/22 05:11:29;;;;;;;10.37;5.30;;;12.20;97.30;;;;;;4990407;28;20555;-86
2022/05/22 05:13:54;;;;;;;11.70;5.60;;;12.30;97.30;;;;;;4989312;28;20461;-87
2022/05/22 05:16:21;;;;;;;13.80;6.30;;;12.40;97.30;;;;;;4990102;28;20194;-87
2022/05/22 05:18:47;;;;;;;10.80;5.33;;;12.40;97.30;;;;;;4990112;28;20177;-87
2022/05/22 05:21:14;;;;;;;18.93;5.70;;;12.50;97.30;;;;;;4989715;28;20428;-87
2022/05/22 05:23:41;;;;;;;9.03;4.80;;;12.50;97.30;;;;;;4990026;28;20264;-87
2022/05/22 05:26:06;;;;;;;8.57;4.20;;;12.60;97.30;;;;;;4989668;28;20834;-87
2022/05/22 05:28:32;;;;;;;14.60;4.80;;;12.60;97.30;;;;;;4989884;28;20422;-87
2022/05/22 05:30:59;;;;;;;12.33;4.90;;;12.60;97.30;;;;;;4989972;28;20256;-86
2022/05/22 05:33:24;;;;;;;9.87;5.13;;;12.70;97.30;;;;;;4990127;28;20182;-87
2022/05/22 05:35:50;;;;;;;10.40;5.70;;;12.70;97.30;;;;;;4990258;28;20492;-87
2022/05/22 05:38:16;;;;;;;12.10;4.70;;;12.80;97.30;;;;;;4990100;28;20170;-87
2022/05/22 05:40:42;;;;;;;16.70;4.70;;;12.80;97.30;;;;;;4990157;28;20231;-87
2022/05/22 05:43:08;;;;;;;10.57;4.43;;;12.80;97.30;;;;;;4989487;28;20173;-86
2022/05/22 05:45:34;;;;;;;9.30;4.43;;;12.90;97.30;;;;;;4990976;28;20204;-87
2022/05/22 05:48:00;;;;;;;9.50;4.83;;;12.90;97.30;;;;;;4989790;28;20508;-87
2022/05/22 05:50:26;;;;;;;10.33;5.00;;;13.00;97.30;;;;;;4989728;28;20535;-87
2022/05/22 05:52:57;;;;;;;12.03;4.93;;;13.00;97.30;;;;;;4989555;28;20665;-87
2022/05/22 05:55:24;;;;;;;7.77;4.50;;;13.10;97.30;;;;;;4989511;28;20468;-87
2022/05/22 05:57:50;;;;;;;10.40;4.30;;;13.10;97.30;;;;;;4989938;28;20428;-87
2022/05/22 06:00:19;;;;;;;6.90;4.23;;;13.10;97.30;;;;;;4989494;28;20421;-87
2022/05/22 06:02:44;;;;;;;9.17;4.20;;;13.10;97.30;;;;;;4989291;28;20413;-87
2022/05/22 06:05:12;;;;;;;8.50;4.00;;;13.20;97.30;;;;;;4989134;28;20476;-87
2022/05/22 06:07:37;;;;;;;12.17;4.40;;;13.20;97.30;;;;;;4989318;28;20644;-87
2022/05/22 06:10:05;;;;;;;8.40;3.57;;;13.30;97.30;;;;;;4989274;28;20769;-86
2022/05/22 06:12:31;;;;;;;4.70;3.63;;;13.30;97.30;;;;;;4989197;28;20197;-87
2022/05/22 06:14:57;;;;;;;7.03;3.60;;;13.40;97.30;;;;;;4990543;28;20461;-87
2022/05/22 06:17:34;;;;;;;9.77;4.87;;;13.50;97.30;;;;;;4989704;28;20177;-87
2022/05/22 06:20:01;;;;;;;9.80;3.50;;;13.50;97.30;;;;;;4989598;28;20178;-87
2022/05/22 06:22:32;;;;;;;8.20;3.33;;;13.60;97.30;;;;;;4989374;28;20483;-87
2022/05/22 06:24:58;;;;;;;9.70;4.43;;;13.60;97.30;;;;;;4990709;28;20495;-86
2022/05/22 06:27:24;;;;;;;5.53;2.90;;;13.70;97.30;;;;;;4993565;28;20867;-87
2022/05/22 06:29:50;;;;;;;7.70;3.20;;;13.70;97.30;;;;;;4994389;28;20460;-87
2022/05/22 06:32:18;;;;;;;9.37;2.80;;;13.80;97.30;;;;;;4993208;28;20189;-87
2022/05/22 06:34:44;;;;;;;9.53;3.90;;;13.80;97.30;;;;;;4992678;28;20209;-87
2022/05/22 06:37:12;;;;;;;6.40;3.20;;;13.90;97.30;;;;;;4993393;28;20448;-87
2022/05/22 06:39:54;;;;;;;9.00;3.20;;;14.00;97.30;;;;;;4992868;28;20432;-87
2022/05/22 06:42:26;;;;;;;10.73;3.97;;;14.00;97.30;;;;;;4993245;28;20464;-87
2022/05/22 06:44:55;;;;;;;9.53;3.17;;;14.10;97.30;;;;;;4992608;28;20491;-87
2022/05/22 06:47:21;;;;;;;11.13;3.50;;;14.10;97.30;;;;;;4993281;28;20421;-87
2022/05/22 06:49:47;;;;;;;4.53;2.40;;;14.10;97.30;;;;;;4992758;28;20473;-87
2022/05/22 06:52:13;;;;;;;7.33;3.13;;;14.20;97.30;;;;;;4992851;28;20463;-86
2022/05/22 06:54:38;;;;;;;5.40;2.80;;;14.20;97.30;;;;;;4992674;28;20460;-87
2022/05/22 06:57:04;;;;;;;9.43;2.73;;;14.20;97.30;;;;;;4992375;28;20801;-87
2022/05/22 06:59:30;;;;;;;6.60;3.17;;;14.30;97.30;;;;;;4992606;28;20201;-87
2022/05/22 07:01:59;;;;;;;6.73;2.90;;;14.30;97.30;;;;;;4992961;28;20417;-89
2022/05/22 07:04:24;;;;;;;4.40;2.97;;;14.40;97.30;;;;;;4993244;28;20338;-87
2022/05/22 07:06:50;;;;;;;8.30;3.83;;;14.40;97.30;;;;;;4994450;28;20994;-87
2022/05/22 07:09:16;;;;;;;12.43;3.20;;;14.50;97.30;;;;;;4993033;28;20189;-87
2022/05/22 07:11:42;;;;;;;7.13;3.23;;;14.60;97.30;;;;;;4992525;28;20667;-87
2022/05/22 07:14:13;;;;;;;5.50;2.97;;;14.60;97.30;;;;;;4992135;28;20464;-87
2022/05/22 07:16:40;;;;;;;6.93;3.00;;;14.60;97.30;;;;;;4992660;28;20208;-87
2022/05/22 07:19:08;;;;;;;7.20;2.53;;;14.70;97.30;;;;;;4992280;28;20897;-87
2022/05/22 07:21:33;;;;;;;13.03;3.17;;;14.70;97.30;;;;;;4992145;28;20856;-87
2022/05/22 07:24:01;;;;;;;10.47;2.77;;;14.80;97.30;;;;;;4992137;28;20425;-87
2022/05/22 07:26:28;;;;;;;6.00;2.40;;;14.80;97.30;;;;;;4992143;28;20229;-87
2022/05/22 07:28:54;;;;;;;12.93;2.80;;;14.90;97.30;;;;;;4993382;28;20409;-84
2022/05/22 07:31:23;;;;;;;6.47;2.57;;;14.90;97.10;;;;;;4992321;28;20479;-86
2022/05/22 07:33:49;;;;;;;6.37;2.43;;;15.00;97.30;;;;;;4991930;28;21049;-86
2022/05/22 07:36:15;;;;;;;8.00;3.20;;;15.00;97.30;;;;;;4992657;28;20495;-86
2022/05/22 07:38:41;;;;;;;11.17;2.80;;;15.10;97.30;;;;;;4991904;28;20416;-86
2022/05/22 07:41:06;;;;;;;13.33;2.57;;;15.10;97.30;;;;;;4991710;28;20588;-86
2022/05/22 07:43:32;;;;;;;10.70;2.80;;;15.20;96.90;;;;;;4993787;28;20244;-86
2022/05/22 07:45:58;;;;;;;4.93;2.23;;;15.30;96.30;;;;;;4994391;28;20194;-86
2022/05/22 07:48:23;;;;;;;5.23;2.50;;;15.30;95.60;;;;;;4995133;28;20173;-85
2022/05/22 07:51:00;;;;;;;7.50;3.20;;;15.30;96.10;;;;;;4996546;28;20187;-86
2022/05/22 07:53:27;;;;;;;7.13;2.60;;;15.40;95.80;;;;;;4995384;28;20170;-86
2022/05/22 07:55:53;;;;;;;6.73;2.73;;;15.50;95.10;;;;;;4995434;28;20452;-86
2022/05/22 07:58:21;;;;;;;14.80;3.30;;;15.50;94.70;;;;;;4996948;28;20767;-86
2022/05/22 08:00:47;;;;;;;6.97;2.80;;;15.60;95.90;;;;;;4994104;28;20421;-87
2022/05/22 08:03:14;;;;;;;9.27;3.27;;;15.70;95.70;;;;;;4991693;28;20448;-87
2022/05/22 08:05:41;;;;;;;8.33;3.03;;;15.80;95.10;;;;;;4991450;28;20437;-87
2022/05/22 08:08:07;;;;;;;7.03;2.77;;;15.90;94.90;;;;;;4991586;28;20807;-87
2022/05/22 08:10:36;;;;;;;8.70;3.27;;;16.00;93.70;;;;;;4991591;28;20429;-86
2022/05/22 08:13:04;;;;;;;8.20;2.60;;;16.00;94.00;;;;;;4991537;28;20472;-86
2022/05/22 08:15:31;;;;;;;5.93;2.90;;;16.00;94.40;;;;;;4992378;28;20464;-86
2022/05/22 08:17:57;;;;;;;10.20;3.30;;;16.00;94.60;;;;;;4991337;28;20954;-87
2022/05/22 08:20:24;;;;;;;4.77;3.00;;;16.00;93.50;;;;;;4991188;28;20429;-86
2022/05/22 08:22:55;;;;;;;13.40;2.93;;;16.00;94.20;;;;;;4990847;28;20428;-86
2022/05/22 08:25:22;;;;;;;6.60;2.80;;;16.00;94.30;;;;;;4990968;28;20484;-87
2022/05/22 08:27:48;;;;;;;10.00;3.10;;;16.10;94.20;;;;;;4991193;28;20784;-86
2022/05/22 08:30:16;;;;;;;11.53;2.93;;;16.30;94.20;;;;;;4992213;28;20425;-87
2022/05/22 08:32:44;;;;;;;9.03;3.40;;;16.40;93.80;;;;;;4990935;28;20927;-86
2022/05/22 08:35:13;;;;;;;11.33;2.70;;;16.50;93.70;;;;;;4990440;28;20467;-88
2022/05/22 08:37:38;;;;;;;9.33;3.10;;;16.50;94.00;;;;;;4990838;28;20445;-87
2022/05/22 08:40:05;;;;;;;8.80;3.20;;;16.60;93.60;;;;;;4990849;28;20958;-87
2022/05/22 08:42:50;;;;;;;6.93;3.20;;;16.60;92.50;;;;;;4990785;28;20277;-86
2022/05/22 08:45:24;;;;;;;5.93;3.10;;;16.70;92.90;;;;;;4990747;28;20445;-86
2022/05/22 08:48:11;;;;;;;10.60;2.87;;;16.80;93.00;;;;;;4990362;28;20416;-86
2022/05/22 08:50:38;;;;;;;15.97;4.10;;;17.00;92.10;;;;;;4990772;28;21029;-86
2022/05/22 08:53:20;;;;;;;11.30;3.20;;;17.10;91.90;;;;;;4990515;28;20428;-87
2022/05/22 08:58:57;;;;;;;8.80;3.10;;;17.20;90.90;;;;;;4992206;28;20493;-87
2022/05/22 09:02:15;;;;;;;6.43;3.00;;;17.20;91.50;;;;;;4990633;28;20424;-87
2022/05/22 09:04:45;;;;;;;5.17;3.10;;;17.10;91.00;;;;;;5002211;28;20434;-87
2022/05/22 09:07:18;;;;;;;6.83;3.03;;;17.10;89.90;;;;;;4991616;28;20840;-87
2022/05/22 09:10:05;;;;;;;8.23;3.13;;;17.30;90.90;;;;;;4991888;28;20409;-87
2022/05/22 09:12:58;;;;;;;4.40;2.70;;;17.30;90.70;;;;;;4989905;28;20421;-87
2022/05/22 09:15:54;;;;;;;7.80;3.10;;;17.20;91.20;;;;;;5006461;28;20468;-87
2022/05/22 09:18:36;;;;;;;7.30;2.83;;;17.20;89.90;;;;;;4968710;28;20487;-87
2022/05/22 09:21:10;;;;;;;6.33;2.70;;;17.10;90.90;;;;;;4991597;28;20426;-86
2022/05/22 09:24:00;;;;;;;6.30;2.80;;;17.20;90.90;;;;;;4990645;28;20785;-87
2022/05/22 09:26:56;;;;;;;8.70;2.70;;;17.30;90.30;;;;;;4990008;28;20476;-88
2022/05/22 09:29:47;;;;;;;4.53;2.67;;;17.40;89.20;;;;;;5006943;28;20434;-87
2022/05/22 09:32:24;;;;;;;4.87;2.90;;;17.40;89.20;;;;;;4982438;28;20433;-87
2022/05/22 09:35:18;;;;;;;5.37;2.70;;;17.50;90.40;;;;;;4991149;28;21036;-87
2022/05/22 09:38:02;;;;;;;8.13;3.27;;;17.60;91.00;;;;;;4990589;28;20464;-89
2022/05/22 09:40:39;;;;;;;9.47;2.47;;;17.70;90.60;;;;;;4990035;28;20452;-87
2022/05/22 09:43:39;;;;;;;5.40;2.90;;;17.60;90.40;;;;;;4990508;28;20436;-88
2022/05/22 09:46:29;;;;;;;6.27;3.13;;;17.50;88.50;;;;;;4990195;28;20456;-87
2022/05/22 09:49:32;;;;;;;5.67;2.77;;;17.40;89.60;;;;;;4990294;28;20433;-87
2022/05/22 09:52:01;;;;;;;10.60;2.80;;;17.40;89.70;;;;;;4990237;28;20512;-88
2022/05/22 09:54:59;;;;;;;6.40;2.80;;;17.60;88.50;;;;;;4990257;28;20456;-87
2022/05/22 09:57:36;;;;;;;7.27;2.80;;;17.60;88.60;;;;;;4989744;28;20448;-88
2022/05/22 10:00:10;;;;;;;7.10;2.30;;;17.70;88.90;;;;;;4989654;28;20439;-88
2022/05/22 10:02:54;;;;;;;11.00;2.93;;;17.80;88.30;;;;;;4989653;28;20511;-88
2022/05/22 10:05:26;;;;;;;4.37;2.83;;;17.90;87.80;;;;;;4989679;28;20484;-86
2022/05/22 10:08:09;;;;;;;4.63;3.23;;;18.00;88.70;;;;;;4989595;28;20429;-85
2022/05/22 10:10:55;;;;;;;6.77;2.47;;;18.20;89.20;;;;;;4989758;28;20436;-86
2022/05/22 10:13:32;;;;;;;6.97;2.80;;;18.40;87.40;;;;;;4990909;28;20985;-86
2022/05/22 10:16:28;;;;;;;8.53;3.03;;;18.60;87.30;;;;;;4989728;28;20464;-87
2022/05/22 10:19:30;;;;;;;5.47;3.30;;;18.80;85.80;;;;;;4989882;28;20406;-87
2022/05/22 10:22:20;;;;;;;5.70;2.67;;;19.00;86.90;;;;;;4990263;28;20423;-87
2022/05/22 10:24:59;;;;;;;11.27;3.10;;;19.10;87.80;;;;;;4990280;28;20424;-88
2022/05/22 10:27:54;;;;;;;8.67;3.90;;;19.10;86.00;;;;;;4990159;28;20993;-88
2022/05/22 10:30:49;;;;;;;6.67;2.93;;;19.10;86.10;;;;;;4992039;28;20421;-88
2022/05/22 10:33:20;;;;;;;6.20;3.60;;;19.10;85.40;;;;;;4983836;28;20425;-88
2022/05/22 10:36:04;;;;;;;4.27;2.57;;;19.10;85.40;;;;;;4990209;28;20475;-88
2022/05/22 10:38:35;;;;;;;7.43;2.70;;;19.20;86.50;;;;;;4990283;28;20452;-88
2022/05/22 10:44:06;;;;;;;4.80;2.63;;;19.40;85.10;;;;;;4991815;28;20416;-89
2022/05/22 10:46:32;;;;;;;6.03;3.10;;;19.50;84.90;;;;;;4990171;28;20527;-87
2022/05/22 10:48:57;;;;;;;5.17;2.33;;;19.50;84.60;;;;;;4990836;28;20535;-88
2022/05/22 10:51:28;;;;;;;3.70;2.30;;;19.50;83.30;;;;;;4990282;28;20185;-88
2022/05/22 10:53:55;;;;;;;6.60;2.23;;;19.50;82.90;;;;;;4990004;28;20201;-88
2022/05/22 10:56:29;;;;;;;7.90;2.50;;;19.40;84.00;;;;;;4990289;28;20440;-87
2022/05/22 10:59:19;;;;;;;9.17;2.70;;;19.40;84.50;;;;;;4990640;28;20471;-88
2022/05/22 11:01:57;;;;;;;7.57;3.03;;;19.60;83.80;;;;;;4991285;28;20468;-87
2022/05/22 11:04:36;;;;;;;5.80;2.80;;;19.60;82.30;;;;;;4993374;28;20428;-87
2022/05/22 11:07:02;;;;;;;3.40;2.50;;;19.80;83.20;;;;;;4992862;28;20855;-87
2022/05/22 11:09:30;;;;;;;5.60;2.90;;;19.90;83.20;;;;;;4997456;28;20444;-88
2022/05/22 11:12:11;;;;;;;5.73;2.70;;;20.00;82.20;;;;;;4996590;28;20421;-87
2022/05/22 11:14:39;;;;;;;6.17;2.67;;;20.20;83.00;;;;;;4997281;28;20456;-87
2022/05/22 11:17:22;;;;;;;6.70;3.33;;;20.40;83.00;;;;;;4996756;28;20444;-87
2022/05/22 11:19:56;;;;;;;4.93;2.87;;;20.40;82.50;;;;;;4998608;28;20409;-88
2022/05/22 11:22:58;;;;;;;5.70;2.63;;;20.40;80.80;;;;;;4994359;28;20417;-88
2022/05/22 11:25:33;;;;;;;5.47;2.80;;;20.30;81.60;;;;;;4993835;28;20479;-88
2022/05/22 11:28:23;;;;;;;6.03;2.70;;;20.30;81.90;;;;;;4993139;28;20417;-88
2022/05/22 11:30:54;;;;;;;4.93;2.60;;;20.40;82.40;;;;;;4995575;28;20417;-89
2022/05/22 11:33:35;;;;;;;7.70;2.67;;;20.50;81.80;;;;;;4993342;28;20512;-88
2022/05/22 11:36:25;;;;;;;7.67;2.97;;;20.60;80.70;;;;;;4992763;28;20996;-87
2022/05/22 11:39:28;;;;;;;12.77;2.90;;;20.70;83.10;;;;;;4989675;28;20952;-88
2022/05/22 11:42:32;;;;;;;6.10;2.50;;;20.80;81.70;;;;;;4973161;28;20417;-89
2022/05/22 11:45:01;;;;;;;7.30;4.00;;;21.00;80.80;;;;;;4988840;28;20414;-88
2022/05/22 11:47:32;;;;;;;7.63;3.00;;;21.00;81.20;;;;;;4974930;28;20422;-89
2022/05/22 11:50:22;;;;;;;8.20;3.00;;;21.00;81.30;;;;;;4973040;28;20500;-89
2022/05/22 11:53:12;;;;;;;12.40;3.93;;;21.10;80.90;;;;;;4973013;28;20418;-89
2022/05/22 11:55:58;;;;;;;8.43;3.27;;;21.10;80.70;;;;;;4973119;28;20809;-88
2022/05/22 11:58:56;;;;;;;4.50;3.17;;;21.00;80.10;;;;;;4973118;28;20415;-88
2022/05/22 12:01:42;;;;;;;5.73;2.30;;;20.90;80.50;;;;;;4940766;28;20421;-88
2022/05/22 12:04:20;;;;;;;3.93;2.90;;;20.70;81.50;;;;;;4974944;28;20414;-88
2022/05/22 12:07:12;;;;;;;9.20;2.80;;;20.70;84.90;;;;;;4973919;28;20540;-88
2022/05/22 12:10:11;;;;;;;3.97;2.70;;;20.70;82.00;;;;;;4972982;28;20453;-89
2022/05/22 12:13:17;;;;;;;8.30;3.10;;;20.60;80.70;;;;;;4972548;28;20472;-88
2022/05/22 12:15:58;;;;;;;8.67;3.47;;;20.40;80.80;;;;;;4932725;29;20491;-87
2022/05/22 12:18:58;;;;;;;7.33;2.80;;;20.50;80.80;;;;;;4969631;28;20812;-88
2022/05/22 12:21:51;;;;;;;7.57;3.57;;;20.60;82.90;;;;;;4971436;28;20429;-89
2022/05/22 12:24:28;;;;;;;5.63;2.80;;;20.80;83.30;;;;;;4972619;28;20513;-88
2022/05/22 12:26:55;;;;;;;5.50;2.87;;;21.00;80.50;;;;;;4972389;28;20900;-89
2022/05/22 12:29:25;;;;;;;8.63;2.53;;;21.10;81.20;;;;;;4972814;28;20426;-90
2022/05/22 12:32:03;;;;;;;4.33;2.60;;;21.10;80.70;;;;;;4972678;28;20460;-87
2022/05/22 12:34:40;;;;;;;6.43;3.00;;;21.30;83.20;;;;;;4972170;28;20568;-87
2022/05/22 12:37:16;;;;;;;4.93;2.47;;;21.50;82.40;;;;;;4979888;28;20796;-89
2022/05/22 12:39:46;;;;;;;9.43;2.90;;;21.70;80.70;;;;;;4992171;28;20495;-88
2022/05/22 12:42:17;;;;;;;6.77;3.00;;;21.50;79.10;;;;;;4992148;28;20424;-88
2022/05/22 12:44:44;;;;;;;6.70;2.70;;;21.30;80.80;;;;;;4992557;28;20456;-88
2022/05/22 12:47:15;;;;;;;2.67;2.47;;;21.20;81.70;;;;;;4992873;28;20483;-88
2022/05/22 12:49:53;;;;;;;9.73;2.60;;;21.10;82.20;;;;;;4993566;28;20520;-88
2022/05/22 12:52:28;;;;;;;6.30;2.77;;;21.10;82.60;;;;;;4991126;28;20437;-88
2022/05/22 12:55:04;;;;;;;4.53;2.30;;;21.10;81.50;;;;;;4990605;28;20961;-87
2022/05/22 12:57:29;;;;;;;7.67;2.83;;;21.00;81.60;;;;;;4991088;28;20426;-88
2022/05/22 13:00:11;;;;;;;7.60;3.70;;;20.90;81.40;;;;;;4990589;28;20765;-88
2022/05/22 13:02:41;;;;;;;7.30;2.80;;;20.80;81.30;;;;;;4990719;28;20192;-87
2022/05/22 13:05:17;;;;;;;7.20;3.00;;;20.80;81.10;;;;;;4990248;28;20431;-89
2022/05/22 13:07:44;;;;;;;5.77;2.73;;;20.70;81.10;;;;;;4990192;28;20943;-87
2022/05/22 13:10:23;;;;;;;5.70;3.27;;;20.60;80.30;;;;;;4990271;28;20619;-87
2022/05/22 13:12:57;;;;;;;3.87;2.50;;;20.50;80.90;;;;;;4992020;28;20440;-87
2022/05/22 13:15:26;;;;;;;9.10;2.77;;;20.50;80.70;;;;;;4989954;28;20526;-88